Dushanbe, Tajikistan
Current Conditions -  °F | °C
As of 8:00 AM on Monday 24 Nov 2014 (Local Time) from UTDD Reporting Station
Overcast Overcast  
Wind Chill: 50°   Ceiling: 12000
Heat Index: 50°   Visibility: 6mi
Dew Point: 37°   Wind: 2mph
Humidity: 62%   Direction: 30°NNE
Pressure: 30"   Gusts: NA
Location:  38.57°N, 68.78°E
Report Text: UTDD 240300Z 03001MPS 9000 SCT066CB OVC120 10/03 Q1016 0919//60NOSIG RMK QFE694/0925
Loading
Personal Weather Stations






























Interactive Weather Map New forecast layout! Learn more

10-Day Weather Forecast

Advertisements
Track Severe Weather on mobile